Time;durP1;ratioP1;P1;durP2;ratioP2;P2;SDS_P1;SDS_P2;PMS_P1;PMS_P2;Temp;Humidity;BMP_temperature;BMP_pressure;BME280_temperature;BME280_humidity;BME280_pressure;Samples;Min_cycle;Max_cycle;Signal;HPM_P1;HPM_P2
2023/06/02 00:03:48;;;;;;;;;;;19.60;56.40;;;;;;10126557;28;93547;-65
2023/06/02 00:08:50;;;;;;;;;;;19.60;56.50;;;;;;10125734;28;93817;-66
2023/06/02 00:13:51;;;;;;;;;;;19.60;56.30;;;;;;10126171;28;93965;-66
2023/06/02 00:18:54;;;;;;;;;;;19.70;56.40;;;;;;10125898;28;92844;-66
2023/06/02 00:23:55;;;;;;;;;;;19.60;56.30;;;;;;10129036;28;93606;-66
2023/06/02 00:28:57;;;;;;;;;;;19.60;56.30;;;;;;10132700;28;94853;-66
2023/06/02 00:33:59;;;;;;;;;;;19.60;56.30;;;;;;10129090;28;97154;-66
2023/06/02 00:39:01;;;;;;;;;;;19.60;56.20;;;;;;10132407;28;93534;-66
2023/06/02 00:44:03;;;;;;;;;;;19.60;56.10;;;;;;10132081;28;94541;-66
2023/06/02 00:49:05;;;;;;;;;;;19.60;56.20;;;;;;10131224;28;93462;-66
2023/06/02 00:54:08;;;;;;;;;;;19.60;56.20;;;;;;10131881;28;94953;-66
2023/06/02 00:59:10;;;;;;;;;;;19.60;56.10;;;;;;10131255;28;94521;-66
2023/06/02 01:04:12;;;;;;;;;;;19.50;56.10;;;;;;10131648;28;94534;-66
2023/06/02 01:09:16;;;;;;;;;;;19.50;56.10;;;;;;10130827;28;92910;-66
2023/06/02 01:14:18;;;;;;;;;;;19.60;56.10;;;;;;10113023;28;94455;-66
2023/06/02 01:19:21;;;;;;;;;;;19.50;56.00;;;;;;10129989;28;94734;-66
2023/06/02 01:24:29;;;;;;;;;;;19.50;56.00;;;;;;10127963;28;96744;-66
2023/06/02 01:29:35;;;;;;;;;;;19.50;56.00;;;;;;10130517;28;94627;-66
2023/06/02 01:34:40;;;;;;;;;;;19.50;56.00;;;;;;10129524;28;94345;-66
2023/06/02 01:39:42;;;;;;;;;;;19.50;56.00;;;;;;10129528;28;93758;-66
2023/06/02 01:44:44;;;;;;;;;;;19.50;56.00;;;;;;10112015;28;94595;-66
2023/06/02 01:49:46;;;;;;;;;;;19.50;56.00;;;;;;10129254;28;94619;-66
2023/06/02 01:54:50;;;;;;;;;;;19.40;55.90;;;;;;10112198;28;94538;-66
2023/06/02 01:59:52;;;;;;;;;;;19.40;55.90;;;;;;10129482;28;92836;-66
2023/06/02 02:04:54;;;;;;;;;;;19.40;55.70;;;;;;10112340;28;94447;-66
2023/06/02 02:09:56;;;;;;;;;;;19.50;55.80;;;;;;10129705;28;94444;-66
2023/06/02 02:15:00;;;;;;;;;;;19.50;55.90;;;;;;10126443;28;95339;-66
2023/06/02 02:20:05;;;;;;;;;;;19.40;55.70;;;;;;10127499;28;93142;-66
2023/06/02 02:25:07;;;;;;;;;;;19.40;55.70;;;;;;10128357;28;94004;-66
2023/06/02 02:30:09;;;;;;;;;;;19.50;55.70;;;;;;10128396;28;94607;-66
2023/06/02 02:35:11;;;;;;;;;;;19.50;55.70;;;;;;10128609;28;94445;-66
2023/06/02 02:40:13;;;;;;;;;;;19.50;55.70;;;;;;10127143;28;93662;-66
2023/06/02 02:45:15;;;;;;;;;;;19.50;55.50;;;;;;10127698;28;92802;-66
2023/06/02 02:50:17;;;;;;;;;;;19.50;55.60;;;;;;10129214;28;92639;-66
2023/06/02 02:55:19;;;;;;;;;;;19.50;55.50;;;;;;10127308;28;93718;-66
2023/06/02 03:00:21;;;;;;;;;;;19.40;55.40;;;;;;10127663;28;94490;-66
2023/06/02 03:05:22;;;;;;;;;;;19.40;55.40;;;;;;10124409;28;96092;-66
2023/06/02 03:10:24;;;;;;;;;;;19.40;55.40;;;;;;10126445;28;93469;-66
2023/06/02 03:15:27;;;;;;;;;;;19.40;55.40;;;;;;10126616;28;93944;-66
2023/06/02 03:20:29;;;;;;;;;;;19.40;55.40;;;;;;10109423;28;93698;-66
2023/06/02 03:25:31;;;;;;;;;;;19.40;55.40;;;;;;10126183;28;93577;-66
2023/06/02 03:30:32;;;;;;;;;;;19.40;55.40;;;;;;10125537;28;93586;-66
2023/06/02 03:35:34;;;;;;;;;;;19.40;55.40;;;;;;10125417;28;93697;-66
2023/06/02 03:40:36;;;;;;;;;;;19.40;55.40;;;;;;10126874;28;93848;-66
2023/06/02 04:24:21;;;;;;;;;;;19.30;55.40;;;;;;10128227;28;93002;-67
2023/06/02 04:29:23;;;;;;;;;;;19.30;55.40;;;;;;10132813;28;94258;-67
2023/06/02 04:34:25;;;;;;;;;;;19.30;55.40;;;;;;10132583;28;93533;-68
2023/06/02 04:39:27;;;;;;;;;;;19.30;55.30;;;;;;10134427;28;92523;-67
2023/06/02 04:44:29;;;;;;;;;;;19.30;55.30;;;;;;10134776;28;93522;-68
2023/06/02 04:49:31;;;;;;;;;;;19.30;56.30;;;;;;10514506;23;94210;-68
2023/06/02 04:54:33;;;;;;;;;;;19.30;55.30;;;;;;10168982;28;95854;-68
2023/06/02 04:59:35;;;;;;;;;;;19.30;55.30;;;;;;10210807;28;92750;-68
2023/06/02 05:04:37;;;;;;;;;;;19.30;55.20;;;;;;10211573;28;93713;-68
2023/06/02 05:09:39;;;;;;;;;;;19.30;55.20;;;;;;10192003;28;94472;-67
2023/06/02 05:14:40;;;;;;;;;;;19.30;55.20;;;;;;10209021;28;93641;-68
2023/06/02 05:19:42;;;;;;;;;;;19.30;55.20;;;;;;10210798;28;93487;-67
2023/06/02 05:24:46;;;;;;;;;;;19.30;55.60;;;;;;10210439;28;93612;-68
2023/06/02 05:29:48;;;;;;;;;;;19.40;56.70;;;;;;10195489;28;92751;-68
2023/06/02 05:34:51;;;;;;;;;;;19.40;57.60;;;;;;10210456;28;94265;-68
2023/06/02 05:39:52;;;;;;;;;;;19.40;56.70;;;;;;10209756;28;93633;-69
2023/06/02 05:44:54;;;;;;;;;;;19.40;56.70;;;;;;10208142;28;96337;-68
2023/06/02 05:49:56;;;;;;;;;;;19.40;56.20;;;;;;10209662;28;95718;-68
2023/06/02 05:54:58;;;;;;;;;;;19.40;56.60;;;;;;10209747;28;93486;-68
2023/06/02 05:59:59;;;;;;;;;;;19.50;56.80;;;;;;10208809;28;94850;-69
2023/06/02 06:05:01;;;;;;;;;;;19.50;56.80;;;;;;10208760;28;93192;-68
2023/06/02 06:10:03;;;;;;;;;;;19.50;56.80;;;;;;10209385;28;93684;-69
2023/06/02 06:15:05;;;;;;;;;;;19.50;56.90;;;;;;10206832;28;94160;-68
2023/06/02 06:20:09;;;;;;;;;;;19.50;57.00;;;;;;10207516;28;91809;-69
2023/06/02 06:25:11;;;;;;;;;;;19.50;57.00;;;;;;10206796;28;93368;-69
2023/06/02 06:30:13;;;;;;;;;;;19.50;56.80;;;;;;10208427;28;93540;-69
2023/06/02 06:35:14;;;;;;;;;;;19.40;56.70;;;;;;10205227;28;97238;-69
2023/06/02 06:40:16;;;;;;;;;;;19.40;56.70;;;;;;10207013;28;94503;-69
2023/06/02 06:45:18;;;;;;;;;;;19.40;56.80;;;;;;10207265;28;93593;-68
2023/06/02 06:50:20;;;;;;;;;;;19.40;56.70;;;;;;10207504;28;95074;-69
2023/06/02 06:55:21;;;;;;;;;;;19.40;56.80;;;;;;10207651;28;94674;-68
2023/06/02 07:00:23;;;;;;;;;;;19.40;56.70;;;;;;10208036;28;93764;-69
2023/06/02 07:05:25;;;;;;;;;;;19.40;56.70;;;;;;10190243;28;93545;-69
2023/06/02 07:10:27;;;;;;;;;;;19.30;56.70;;;;;;10208880;28;95039;-68
2023/06/02 07:15:30;;;;;;;;;;;19.30;56.60;;;;;;10206730;28;93507;-68
2023/06/02 07:20:31;;;;;;;;;;;19.30;56.50;;;;;;10207833;28;93603;-69
2023/06/02 07:25:34;;;;;;;;;;;19.40;56.60;;;;;;10204548;28;97373;-68
2023/06/02 07:30:36;;;;;;;;;;;19.30;56.50;;;;;;10190247;28;93075;-68
2023/06/02 07:35:37;;;;;;;;;;;19.30;56.40;;;;;;10188151;28;94766;-69
2023/06/02 07:40:39;;;;;;;;;;;19.40;56.50;;;;;;10205565;28;93590;-68
2023/06/02 07:45:41;;;;;;;;;;;19.40;56.50;;;;;;10188780;28;94449;-69
2023/06/02 07:50:43;;;;;;;;;;;19.40;56.50;;;;;;10205462;28;94025;-68
2023/06/02 07:55:45;;;;;;;;;;;19.30;57.50;;;;;;10188309;28;94617;-69
2023/06/02 08:00:47;;;;;;;;;;;19.30;56.50;;;;;;10206847;28;93046;-69
2023/06/02 08:05:49;;;;;;;;;;;19.30;56.60;;;;;;10205413;28;94488;-69
2023/06/02 08:10:51;;;;;;;;;;;19.30;56.60;;;;;;10204808;28;94488;-68
2023/06/02 08:15:53;;;;;;;;;;;19.30;56.60;;;;;;10203429;28;97038;-69
2023/06/02 08:21:15;;;;;;;;;;;19.30;56.60;;;;;;10205795;28;95633;-69
2023/06/02 08:26:17;;;;;;;;;;;19.30;56.60;;;;;;10204270;28;93300;-68
2023/06/02 08:31:22;;;;;;;;;;;19.30;56.70;;;;;;10204501;28;93439;-68
2023/06/02 08:36:26;;;;;;;;;;;19.30;56.70;;;;;;10205977;28;94930;-68
2023/06/02 08:41:28;;;;;;;;;;;19.30;56.70;;;;;;10204525;28;93494;-68
2023/06/02 08:46:30;;;;;;;;;;;19.30;56.70;;;;;;10210095;28;94495;-69
2023/06/02 08:51:34;;;;;;;;;;;19.30;56.70;;;;;;10195160;28;93833;-68
2023/06/02 08:56:43;;;;;;;;;;;19.40;56.70;;;;;;10211069;28;113791;-68
2023/06/02 09:01:46;;;;;;;;;;;19.30;56.70;;;;;;10210367;28;93494;-68
2023/06/02 09:06:49;;;;;;;;;;;19.30;56.70;;;;;;10210060;28;96956;-68
2023/06/02 09:11:56;;;;;;;;;;;19.40;56.70;;;;;;10211255;28;93501;-69
2023/06/02 09:16:58;;;;;;;;;;;19.40;56.80;;;;;;10210573;28;93610;-68
2023/06/02 09:22:04;;;;;;;;;;;19.30;56.70;;;;;;10210374;28;93470;-68
2023/06/02 09:27:11;;;;;;;;;;;19.40;56.80;;;;;;10209584;28;94039;-69
2023/06/02 09:32:16;;;;;;;;;;;19.30;56.70;;;;;;10210525;28;94672;-68
2023/06/02 09:37:18;;;;;;;;;;;19.30;56.80;;;;;;10209898;28;94253;-68
2023/06/02 09:42:23;;;;;;;;;;;19.40;56.80;;;;;;10210800;28;93703;-68
2023/06/02 09:47:25;;;;;;;;;;;19.30;56.80;;;;;;10209503;28;94579;-68
2023/06/02 09:52:27;;;;;;;;;;;19.30;56.80;;;;;;10209937;28;93945;-68
2023/06/02 09:57:30;;;;;;;;;;;19.40;56.80;;;;;;10190144;28;97039;-69
2023/06/02 10:02:32;;;;;;;;;;;19.40;56.90;;;;;;10208721;28;94525;-70
2023/06/02 10:07:48;;;;;;;;;;;19.40;56.90;;;;;;10191905;28;94472;-69
2023/06/02 10:12:50;;;;;;;;;;;19.40;56.90;;;;;;10192143;28;93955;-69
2023/06/02 10:18:04;;;;;;;;;;;19.40;56.80;;;;;;10208497;28;94558;-68
2023/06/02 10:23:19;;;;;;;;;;;19.40;56.80;;;;;;10209214;28;94512;-68
2023/06/02 10:28:21;;;;;;;;;;;19.50;56.80;;;;;;10207789;28;93897;-68
2023/06/02 10:33:42;;;;;;;;;;;19.50;56.80;;;;;;10207977;28;92838;-68
2023/06/02 10:38:45;;;;;;;;;;;19.50;56.80;;;;;;10207372;28;94959;-69
2023/06/02 10:44:05;;;;;;;;;;;19.50;56.80;;;;;;10200166;28;94576;-69
2023/06/02 10:49:07;;;;;;;;;;;19.50;56.80;;;;;;10187967;28;96480;-69
2023/06/02 10:54:11;;;;;;;;;;;19.60;56.90;;;;;;10207265;28;93754;-68
2023/06/02 10:59:30;;;;;;;;;;;19.60;56.90;;;;;;10207467;28;93620;-68
2023/06/02 11:04:33;;;;;;;;;;;19.60;56.90;;;;;;10208080;28;93594;-69
2023/06/02 11:09:35;;;;;;;;;;;19.70;56.80;;;;;;10205948;28;93448;-68
2023/06/02 11:14:55;;;;;;;;;;;19.70;56.80;;;;;;10207693;28;94481;-69
2023/06/02 11:19:57;;;;;;;;;;;19.70;56.80;;;;;;10206759;28;93490;-69
2023/06/02 11:24:59;;;;;;;;;;;19.70;56.80;;;;;;10206692;28;92823;-68
2023/06/02 11:30:06;;;;;;;;;;;19.80;56.90;;;;;;10188438;28;93540;-68
2023/06/02 11:35:09;;;;;;;;;;;19.80;57.00;;;;;;10206215;28;94701;-69
2023/06/02 11:40:12;;;;;;;;;;;19.80;56.90;;;;;;10203755;28;95861;-69
2023/06/02 11:45:21;;;;;;;;;;;19.80;56.90;;;;;;10205623;28;93548;-68
2023/06/02 11:50:22;;;;;;;;;;;19.80;57.00;;;;;;10206329;28;94558;-68
2023/06/02 11:55:25;;;;;;;;;;;19.80;57.00;;;;;;10207698;28;93518;-66
2023/06/02 12:00:29;;;;;;;;;;;19.90;57.20;;;;;;10206819;28;93401;-67
2023/06/02 12:05:32;;;;;;;;;;;19.90;57.10;;;;;;10206345;28;94532;-67
2023/06/02 12:10:34;;;;;;;;;;;19.90;57.20;;;;;;10172655;28;93454;-66
2023/06/02 12:15:37;;;;;;;;;;;19.90;57.40;;;;;;10187693;28;92765;-68
2023/06/02 12:20:40;;;;;;;;;;;19.90;57.60;;;;;;10192446;28;93806;-69
2023/06/02 12:25:52;;;;;;;;;;;20.00;58.10;;;;;;10211492;28;93644;-70
2023/06/02 12:30:54;;;;;;;;;;;20.00;58.00;;;;;;10209526;28;95886;-69
2023/06/02 12:35:56;;;;;;;;;;;20.00;57.60;;;;;;10211392;28;94520;-72
2023/06/02 12:40:58;;;;;;;;;;;20.00;57.70;;;;;;10211550;28;94521;-68
2023/06/02 12:46:00;;;;;;;;;;;20.00;57.70;;;;;;10211119;28;93616;-68
2023/06/02 12:51:01;;;;;;;;;;;20.10;58.10;;;;;;10210142;28;94781;-67
2023/06/02 12:56:06;;;;;;;;;;;20.10;58.50;;;;;;10210843;28;94551;-67
2023/06/02 13:01:08;;;;;;;;;;;20.20;58.70;;;;;;10210487;28;93594;-68
2023/06/02 13:06:10;;;;;;;;;;;20.30;58.90;;;;;;10211195;28;93826;-67
2023/06/02 13:11:12;;;;;;;;;;;20.30;59.20;;;;;;10210253;28;92745;-67
2023/06/02 13:16:13;;;;;;;;;;;20.30;59.20;;;;;;10208657;28;93655;-68
2023/06/02 13:21:16;;;;;;;;;;;20.30;59.20;;;;;;10207131;28;95940;-67
2023/06/02 13:26:17;;;;;;;;;;;20.30;60.00;;;;;;10210058;28;94009;-66
2023/06/02 13:31:19;;;;;;;;;;;20.40;60.00;;;;;;10209095;28;93340;-68
2023/06/02 13:36:21;;;;;;;;;;;20.40;60.20;;;;;;10192330;28;93688;-67
2023/06/02 13:41:22;;;;;;;;;;;20.40;60.40;;;;;;10210369;28;92549;-68
2023/06/02 13:46:24;;;;;;;;;;;20.40;60.50;;;;;;10209207;28;94060;-68
2023/06/02 13:51:26;;;;;;;;;;;20.40;60.50;;;;;;10209393;28;94328;-69
2023/06/02 13:56:28;;;;;;;;;;;20.50;60.30;;;;;;10210360;28;92558;-70
2023/06/02 14:01:30;;;;;;;;;;;20.40;60.20;;;;;;10209801;28;94828;-70
2023/06/02 14:06:35;;;;;;;;;;;20.40;60.30;;;;;;10207573;28;93533;-68
2023/06/02 14:11:37;;;;;;;;;;;20.40;60.30;;;;;;10205907;28;96905;-70
2023/06/02 14:16:39;;;;;;;;;;;20.40;60.50;;;;;;10208430;28;94482;-71
2023/06/02 14:21:40;;;;;;;;;;;20.40;60.50;;;;;;10207936;28;93461;-69
2023/06/02 14:26:42;;;;;;;;;;;20.40;60.60;;;;;;10208292;28;93579;-68
2023/06/02 14:31:44;;;;;;;;;;;20.40;60.70;;;;;;10209083;28;94928;-68
2023/06/02 14:36:46;;;;;;;;;;;20.40;61.30;;;;;;10190158;28;93476;-67
2023/06/02 14:41:47;;;;;;;;;;;20.40;61.50;;;;;;10207125;28;93221;-69
2023/06/02 14:46:49;;;;;;;;;;;20.50;61.80;;;;;;10192082;28;93137;-69
2023/06/02 14:51:51;;;;;;;;;;;20.50;62.20;;;;;;10206147;28;93525;-69
2023/06/02 14:56:53;;;;;;;;;;;20.50;62.10;;;;;;10206318;28;94243;-68
2023/06/02 15:01:55;;;;;;;;;;;20.50;62.20;;;;;;10203415;28;96968;-67
2023/06/02 15:06:56;;;;;;;;;;;20.50;62.20;;;;;;10189258;28;93520;-69
2023/06/02 15:11:58;;;;;;;;;;;20.50;62.00;;;;;;10207134;28;95276;-69
2023/06/02 15:17:00;;;;;;;;;;;20.50;62.20;;;;;;10188442;28;94564;-68
2023/06/02 15:22:02;;;;;;;;;;;20.50;61.80;;;;;;10189696;28;93463;-68
2023/06/02 15:27:05;;;;;;;;;;;20.40;61.80;;;;;;10172837;28;93534;-69
2023/06/02 15:32:07;;;;;;;;;;;20.40;61.80;;;;;;10206646;28;93627;-68
2023/06/02 15:37:09;;;;;;;;;;;20.40;61.80;;;;;;10206867;28;93997;-69
2023/06/02 15:42:11;;;;;;;;;;;20.30;61.70;;;;;;10206719;28;93978;-67
2023/06/02 15:47:13;;;;;;;;;;;20.30;61.60;;;;;;10205106;28;93601;-66
2023/06/02 15:52:14;;;;;;;;;;;20.40;61.50;;;;;;10185834;28;97080;-67
2023/06/02 15:57:16;;;;;;;;;;;20.40;61.50;;;;;;10200918;28;93732;-68
2023/06/02 16:02:18;;;;;;;;;;;20.50;61.40;;;;;;10218233;28;93802;-68
2023/06/02 16:07:21;;;;;;;;;;;20.50;61.30;;;;;;10218427;28;95036;-68
2023/06/02 16:12:22;;;;;;;;;;;20.40;61.30;;;;;;10218069;28;94590;-68
2023/06/02 16:17:24;;;;;;;;;;;20.40;61.30;;;;;;10200910;28;93705;-67
2023/06/02 16:22:26;;;;;;;;;;;20.40;61.10;;;;;;10219186;28;93699;-67
2023/06/02 16:27:29;;;;;;;;;;;20.40;60.80;;;;;;10219998;28;93271;-67
2023/06/02 16:32:31;;;;;;;;;;;20.40;61.00;;;;;;10201699;28;93809;-68
2023/06/02 16:37:33;;;;;;;;;;;20.40;61.30;;;;;;10218364;28;93828;-67
2023/06/02 16:42:35;;;;;;;;;;;20.30;61.40;;;;;;10216812;28;96565;-67
2023/06/02 16:47:36;;;;;;;;;;;20.40;61.70;;;;;;10218088;28;93585;-67
2023/06/02 16:52:38;;;;;;;;;;;20.40;61.80;;;;;;10219148;28;93676;-67
2023/06/02 16:57:40;;;;;;;;;;;20.40;61.90;;;;;;10218482;28;94652;-66
2023/06/02 17:02:42;;;;;;;;;;;20.40;63.00;;;;;;10202407;28;93290;-67
2023/06/02 17:07:44;;;;;;;;;;;20.40;62.80;;;;;;10195282;28;93199;-67
2023/06/02 17:12:45;;;;;;;;;;;20.50;62.70;;;;;;10210378;28;94506;-67
2023/06/02 17:17:47;;;;;;;;;;;20.50;62.70;;;;;;10211374;28;94191;-67
2023/06/02 17:22:49;;;;;;;;;;;20.60;62.80;;;;;;10209801;28;93473;-67
2023/06/02 17:27:51;;;;;;;;;;;20.60;62.70;;;;;;10210897;28;94860;-67
2023/06/02 17:32:53;;;;;;;;;;;20.70;63.00;;;;;;10207887;28;96889;-67
2023/06/02 17:37:54;;;;;;;;;;;20.80;63.20;;;;;;10210389;28;94531;-67
2023/06/02 17:42:56;;;;;;;;;;;20.80;64.30;;;;;;10192721;28;93666;-68
2023/06/02 17:47:58;;;;;;;;;;;20.80;63.20;;;;;;10191839;28;94427;-69
2023/06/02 17:53:00;;;;;;;;;;;20.90;63.30;;;;;;10209490;28;93686;-68
2023/06/02 17:58:03;;;;;;;;;;;20.90;63.30;;;;;;10192171;28;94520;-67
2023/06/02 18:03:05;;;;;;;;;;;21.00;63.30;;;;;;10209789;28;94495;-68
2023/06/02 18:08:07;;;;;;;;;;;21.00;63.30;;;;;;10209740;28;92698;-69
2023/06/02 18:13:09;;;;;;;;;;;21.10;63.30;;;;;;10210232;28;97916;-69
2023/06/02 18:18:10;;;;;;;;;;;21.10;63.20;;;;;;10207759;28;93608;-68
2023/06/02 18:23:12;;;;;;;;;;;21.20;63.20;;;;;;10205964;28;95887;-68
2023/06/02 18:28:14;;;;;;;;;;;21.20;63.30;;;;;;10209318;28;94438;-67
2023/06/02 18:33:16;;;;;;;;;;;21.20;63.10;;;;;;10208684;28;94819;-67
2023/06/02 18:38:18;;;;;;;;;;;21.20;63.20;;;;;;10208664;28;93596;-67
2023/06/02 18:43:19;;;;;;;;;;;21.10;63.30;;;;;;10209311;28;93851;-68
2023/06/02 18:48:21;;;;;;;;;;;21.10;63.40;;;;;;10207199;28;94331;-68
2023/06/02 18:53:23;;;;;;;;;;;21.00;63.40;;;;;;10208083;28;94390;-68
2023/06/02 18:58:25;;;;;;;;;;;21.00;63.40;;;;;;10208138;28;92941;-68
2023/06/02 19:03:27;;;;;;;;;;;20.90;63.60;;;;;;10190141;28;94639;-68
2023/06/02 19:08:28;;;;;;;;;;;20.90;63.70;;;;;;10207946;28;94503;-69
2023/06/02 19:13:32;;;;;;;;;;;20.80;63.80;;;;;;10204502;28;95926;-66
2023/06/02 19:18:36;;;;;;;;;;;20.80;63.80;;;;;;10189284;28;93908;-67
2023/06/02 19:23:38;;;;;;;;;;;20.70;63.80;;;;;;10206146;28;93520;-68
2023/06/02 19:28:40;;;;;;;;;;;20.70;63.80;;;;;;10206589;28;94572;-67
2023/06/02 19:33:42;;;;;;;;;;;20.60;63.80;;;;;;10206478;28;94518;-67
2023/06/02 19:38:44;;;;;;;;;;;20.60;63.80;;;;;;10189508;28;94751;-68
2023/06/02 19:43:46;;;;;;;;;;;20.60;63.90;;;;;;10207443;28;94760;-67
2023/06/02 19:48:47;;;;;;;;;;;20.60;63.90;;;;;;10207138;28;92978;-68
2023/06/02 19:53:49;;;;;;;;;;;20.60;63.80;;;;;;10205895;28;94237;-67
2023/06/02 19:58:51;;;;;;;;;;;20.60;63.80;;;;;;10206054;28;93675;-67
2023/06/02 20:03:53;;;;;;;;;;;20.60;63.90;;;;;;10203829;28;97297;-68
2023/06/02 20:08:55;;;;;;;;;;;20.60;63.80;;;;;;10204245;28;93457;-67
2023/06/02 20:14:00;;;;;;;;;;;20.50;63.80;;;;;;10205693;28;93681;-68
2023/06/02 20:19:01;;;;;;;;;;;20.50;63.80;;;;;;10203969;28;93516;-67
2023/06/02 20:24:04;;;;;;;;;;;20.50;63.80;;;;;;10204762;28;93289;-68
2023/06/02 20:29:06;;;;;;;;;;;20.50;63.80;;;;;;10204100;28;93070;-67
2023/06/02 20:34:07;;;;;;;;;;;20.40;63.70;;;;;;10206086;28;94706;-67
2023/06/02 20:39:09;;;;;;;;;;;20.40;63.70;;;;;;10206126;28;93758;-67
2023/06/02 20:44:11;;;;;;;;;;;20.40;63.70;;;;;;10211277;28;94514;-67
2023/06/02 20:49:13;;;;;;;;;;;20.40;63.70;;;;;;10212223;28;93645;-68
2023/06/02 20:54:15;;;;;;;;;;;20.40;63.60;;;;;;10191252;28;96970;-65
2023/06/02 20:59:17;;;;;;;;;;;20.40;63.60;;;;;;10210630;28;93715;-67
2023/06/02 21:04:18;;;;;;;;;;;20.40;63.60;;;;;;10211332;28;94588;-68
2023/06/02 21:09:22;;;;;;;;;;;20.40;63.70;;;;;;10192225;28;92603;-67
2023/06/02 21:14:24;;;;;;;;;;;20.40;63.60;;;;;;10210359;28;94221;-68
2023/06/02 21:19:26;;;;;;;;;;;20.40;63.50;;;;;;10209752;28;93529;-68
2023/06/02 21:24:28;;;;;;;;;;;20.30;63.40;;;;;;10209914;28;93646;-67
2023/06/02 21:29:30;;;;;;;;;;;20.30;63.40;;;;;;10211653;28;94071;-68
2023/06/02 21:34:32;;;;;;;;;;;20.30;63.40;;;;;;10209941;28;94478;-67
2023/06/02 21:39:34;;;;;;;;;;;20.30;63.30;;;;;;10176005;28;93832;-67
2023/06/02 21:44:36;;;;;;;;;;;20.40;63.30;;;;;;10205995;28;95926;-67
2023/06/02 21:49:37;;;;;;;;;;;20.30;63.10;;;;;;10210008;28;94495;-67
2023/06/02 21:54:39;;;;;;;;;;;20.30;63.00;;;;;;10191778;28;94477;-67
2023/06/02 21:59:41;;;;;;;;;;;20.30;64.00;;;;;;10208354;28;93625;-67
2023/06/02 22:04:42;;;;;;;;;;;20.30;62.90;;;;;;10210193;28;94770;-67
2023/06/02 22:09:44;;;;;;;;;;;20.30;62.90;;;;;;10208931;28;94456;-67
2023/06/02 22:14:46;;;;;;;;;;;20.30;62.80;;;;;;10208763;28;93504;-67
2023/06/02 22:19:48;;;;;;;;;;;20.30;62.80;;;;;;10208449;28;93783;-67
2023/06/02 22:24:50;;;;;;;;;;;20.20;62.60;;;;;;10208078;28;92880;-67
2023/06/02 22:29:55;;;;;;;;;;;20.20;62.50;;;;;;10207796;28;93490;-67
2023/06/02 22:34:56;;;;;;;;;;;20.20;62.50;;;;;;10205465;28;96866;-66
2023/06/02 22:39:58;;;;;;;;;;;20.20;62.50;;;;;;10208122;28;94530;-67
2023/06/02 22:45:00;;;;;;;;;;;20.20;62.40;;;;;;10207722;28;94641;-67
2023/06/02 22:50:02;;;;;;;;;;;20.20;62.20;;;;;;10206954;28;94916;-67
2023/06/02 22:55:04;;;;;;;;;;;20.10;62.10;;;;;;10189614;28;93490;-67
2023/06/02 23:00:06;;;;;;;;;;;20.10;63.10;;;;;;10189421;28;94654;-66
2023/06/02 23:05:08;;;;;;;;;;;20.10;62.00;;;;;;10206434;28;93571;-67
2023/06/02 23:10:10;;;;;;;;;;;20.10;62.00;;;;;;10207135;28;93381;-67
2023/06/02 23:15:12;;;;;;;;;;;20.10;61.90;;;;;;10207620;28;94562;-67
2023/06/02 23:20:14;;;;;;;;;;;20.10;61.90;;;;;;10206701;28;93578;-65
2023/06/02 23:25:16;;;;;;;;;;;20.10;61.80;;;;;;10187486;28;96930;-67
2023/06/02 23:30:17;;;;;;;;;;;20.00;61.70;;;;;;10207099;28;94513;-67
2023/06/02 23:35:20;;;;;;;;;;;20.00;61.60;;;;;;10206262;28;94613;-67
2023/06/02 23:40:21;;;;;;;;;;;20.10;61.60;;;;;;10206612;28;94145;-67
2023/06/02 23:45:23;;;;;;;;;;;20.00;61.50;;;;;;10206336;28;93830;-66
2023/06/02 23:50:25;;;;;;;;;;;20.00;61.40;;;;;;10205612;28;93575;-67
2023/06/02 23:55:27;;;;;;;;;;;20.00;61.40;;;;;;10206545;28;94473;-66
